Accueil
METAR-TAF:

METAR-TAF

Aéroports :

Aéroport de Crotone

Crotone, Italie

latitude: 39-00N, longitude: 017-04E, altitude: 155 m

Observation

Le bulletin a été fait il y a 11 heures et 50 minutes, à 18:50 UTC
Vent 10 kt de nord
Température 9°C
Humidité 43%
Pression 1021 hPa
Visibilité 10 km ou plus
Quelques nuages à une hauteur de 4000 ft

METAR: LIBC 201850Z 35010KT 9999 FEW040 09/M03 Q1021

Heure: 07:40 (06:40 UTC)

Prévision

Le bulletin a été fait il y a 13 heures et 40 minutes, à 17:00 UTC
Prévision valable du 20 à 18 UTC au 21 à 18 UTC
Vent 18 kt de nord avec des rafales jusqu'à 28 kt
Visibilité 10 km ou plus
pas de nuages en-dessous de 1500 mètres et pas de cumulonimbus.
Evoluant progressivement
du 20 à 18 UTC au 20 à 20 UTC
Vent 15 kt de nord/nord-est

TAF: LIBC 201700Z 2018/2118 01018G28KT CAVOK BECMG 2018/2020 02015KT

Observations et prévisions météorologiques de plus de 4000 aéroports (messages METAR et TAF).

Les stations disponibles sont représentées par des disques jaunes et rouges sur la carte.

Passer la souris dessus pour voir le nom de la station.

Cliquer dessus pour voir les observations et prévisions météorologiques.

Pour changer de carte: cliquez sur les boutons verts avec une croix noire pour zoomer, sur le bouton vert avec un tiret pour effectuer un zoom arrière, ou sur les flèches vertes pour les cartes adjacentes.


METAR-TAF: